Time;durP1;ratioP1;P1;durP2;ratioP2;P2;SDS_P1;SDS_P2;PMS_P1;PMS_P2;Temp;Humidity;BMP_temperature;BMP_pressure;BME280_temperature;BME280_humidity;BME280_pressure;Samples;Min_cycle;Max_cycle;Signal;HPM_P1;HPM_P2
2022/11/11 00:01:58;;;;;;;32.30;19.87;;;2.90;99.90;;;;;;5121991;28;20199;-75
2022/11/11 00:04:26;;;;;;;32.33;19.60;;;2.80;99.90;;;;;;5119948;28;20300;-75
2022/11/11 00:06:54;;;;;;;32.90;19.57;;;2.80;99.90;;;;;;5118718;28;20273;-75
2022/11/11 00:09:21;;;;;;;27.90;18.27;;;2.90;99.90;;;;;;5118275;28;20200;-75
2022/11/11 00:11:48;;;;;;;26.30;17.20;;;2.80;99.90;;;;;;5120725;28;20258;-75
2022/11/11 00:14:14;;;;;;;24.77;16.13;;;2.80;99.90;;;;;;5117515;28;20200;-76
2022/11/11 00:25:08;;;;;;;22.43;14.27;;;2.70;99.90;;;;;;5115904;28;20215;-76
2022/11/11 00:27:35;;;;;;;22.20;13.90;;;2.60;99.90;;;;;;5114863;28;20274;-75
2022/11/11 00:30:02;;;;;;;20.47;13.10;;;2.60;99.90;;;;;;5114776;28;20252;-75
2022/11/11 00:32:29;;;;;;;20.07;12.83;;;2.50;99.90;;;;;;5114448;28;20195;-75
2022/11/11 00:37:44;;;;;;;21.30;13.47;;;2.50;99.90;;;;;;5114370;28;20199;-75
2022/11/11 00:40:12;;;;;;;20.93;14.80;;;2.50;99.90;;;;;;5114324;28;20225;-75
2022/11/11 00:42:39;;;;;;;24.33;14.40;;;2.40;99.90;;;;;;5114168;28;20245;-75
2022/11/11 00:45:07;;;;;;;23.10;14.83;;;2.50;99.90;;;;;;5113276;28;20196;-75
2022/11/11 00:53:10;;;;;;;21.67;15.20;;;2.70;99.90;;;;;;5114120;28;20209;-75
2022/11/11 00:55:36;;;;;;;24.13;15.43;;;2.60;99.90;;;;;;5114360;28;20241;-75
2022/11/11 00:58:03;;;;;;;25.77;15.50;;;2.60;99.90;;;;;;5113980;28;20233;-75
2022/11/11 01:00:30;;;;;;;28.37;15.67;;;2.60;99.90;;;;;;5114419;28;20196;-75
2022/11/11 01:02:57;;;;;;;20.70;14.47;;;2.50;99.90;;;;;;5122385;28;20192;-76
2022/11/11 01:05:24;;;;;;;21.13;15.50;;;2.40;99.90;;;;;;5123476;28;20779;-75
2022/11/11 01:07:51;;;;;;;24.30;15.83;;;2.30;99.90;;;;;;5124823;28;20220;-75
2022/11/11 01:13:11;;;;;;;27.33;16.20;;;2.30;99.90;;;;;;5122544;28;20198;-75
2022/11/11 01:15:38;;;;;;;23.17;14.87;;;2.30;99.90;;;;;;5124337;28;20270;-75
2022/11/11 01:18:05;;;;;;;22.47;14.57;;;2.30;99.90;;;;;;5119618;28;20212;-76
2022/11/11 01:20:32;;;;;;;25.60;15.40;;;2.30;99.90;;;;;;5118254;28;20200;-76
2022/11/11 01:22:59;;;;;;;23.30;14.80;;;2.30;99.90;;;;;;5118242;28;20650;-76
2022/11/11 01:25:29;;;;;;;23.53;15.47;;;2.30;99.90;;;;;;5117879;28;20192;-75
2022/11/11 01:27:56;;;;;;;21.80;16.30;;;2.20;99.90;;;;;;5117682;27;20343;-75
2022/11/11 01:30:22;;;;;;;22.67;15.47;;;2.20;99.90;;;;;;5117160;28;20252;-75
2022/11/11 01:32:49;;;;;;;27.17;16.40;;;2.10;99.90;;;;;;5117010;28;20200;-75
2022/11/11 01:35:16;;;;;;;26.17;17.07;;;2.20;99.90;;;;;;5117287;28;20238;-75
2022/11/11 01:37:42;;;;;;;24.33;16.37;;;2.20;99.90;;;;;;5117530;28;20249;-75
2022/11/11 01:40:10;;;;;;;25.80;16.03;;;2.20;99.90;;;;;;5117739;28;20192;-75
2022/11/11 01:42:48;;;;;;;21.07;14.77;;;2.20;99.90;;;;;;5124824;28;20264;-76
2022/11/11 01:45:45;;;;;;;29.20;16.37;;;2.10;99.90;;;;;;5121576;28;20291;-76
2022/11/11 01:51:05;;;;;;;25.07;15.40;;;2.00;99.90;;;;;;5124182;28;20234;-75
2022/11/11 01:53:32;;;;;;;24.57;16.23;;;2.00;99.90;;;;;;5119223;28;20195;-75
2022/11/11 01:56:00;;;;;;;28.73;16.27;;;2.00;99.90;;;;;;5122121;28;20203;-75
2022/11/11 01:58:29;;;;;;;21.20;15.03;;;2.10;99.90;;;;;;5116954;28;20332;-75
2022/11/11 02:00:57;;;;;;;24.23;15.63;;;2.00;99.90;;;;;;5117385;28;20221;-75
2022/11/11 02:03:26;;;;;;;19.03;14.87;;;2.00;99.90;;;;;;5116569;28;20195;-75
2022/11/11 02:05:55;;;;;;;20.97;15.13;;;2.00;99.90;;;;;;5116227;28;20230;-75
2022/11/11 02:08:31;;;;;;;24.83;16.00;;;2.00;99.90;;;;;;5122762;28;20231;-76
2022/11/11 02:11:00;;;;;;;20.30;13.53;;;1.90;99.90;;;;;;5116814;28;20230;-75
2022/11/11 02:16:13;;;;;;;18.83;13.10;;;1.90;99.90;;;;;;5115939;28;20198;-75
2022/11/11 02:18:41;;;;;;;23.73;13.80;;;1.90;99.90;;;;;;5115378;28;20204;-75
2022/11/11 02:21:09;;;;;;;19.23;13.67;;;1.80;99.90;;;;;;5114175;28;20269;-75
2022/11/11 02:23:42;;;;;;;21.93;12.93;;;1.80;99.90;;;;;;5116027;28;20323;-75
2022/11/11 02:26:15;;;;;;;18.80;12.03;;;1.80;99.90;;;;;;5116150;28;20200;-75
2022/11/11 02:28:43;;;;;;;23.33;13.07;;;1.70;99.90;;;;;;5116124;28;20228;-76
2022/11/11 02:31:09;;;;;;;18.17;12.97;;;1.80;99.90;;;;;;5115914;28;20203;-75
2022/11/11 02:33:36;;;;;;;22.30;12.13;;;1.80;99.90;;;;;;5116152;28;20719;-75
2022/11/11 02:36:04;;;;;;;19.67;12.57;;;1.90;99.90;;;;;;5116226;28;20195;-75
2022/11/11 02:38:31;;;;;;;18.40;11.93;;;1.90;99.90;;;;;;5116194;28;20204;-75
2022/11/11 02:43:44;;;;;;;26.73;17.13;;;1.70;99.90;;;;;;5115954;28;20198;-76
2022/11/11 02:46:10;;;;;;;25.17;17.60;;;1.80;99.90;;;;;;5115737;28;20195;-75
2022/11/11 02:48:37;;;;;;;27.13;17.53;;;1.80;99.90;;;;;;5115386;28;20721;-75
2022/11/11 02:51:05;;;;;;;25.07;17.53;;;1.80;99.90;;;;;;5115802;28;20252;-75
2022/11/11 02:53:32;;;;;;;24.43;15.87;;;1.70;99.90;;;;;;5115948;28;20207;-75
2022/11/11 02:55:58;;;;;;;22.20;15.90;;;1.70;99.90;;;;;;5115665;28;20199;-75
2022/11/11 02:58:25;;;;;;;23.57;14.43;;;1.70;99.90;;;;;;5116066;28;20196;-75
2022/11/11 03:00:53;;;;;;;20.40;13.57;;;1.70;99.90;;;;;;5115867;28;20253;-75
2022/11/11 03:03:20;;;;;;;24.10;14.17;;;1.70;99.90;;;;;;5121385;28;20253;-75
2022/11/11 03:05:46;;;;;;;21.43;15.37;;;1.70;99.90;;;;;;5116860;28;20284;-75
2022/11/11 03:08:13;;;;;;;21.37;15.07;;;1.70;99.90;;;;;;5116561;28;20220;-75
2022/11/11 03:10:40;;;;;;;26.43;16.23;;;1.70;99.90;;;;;;5115798;28;20253;-75
2022/11/11 03:13:06;;;;;;;25.07;14.63;;;1.70;99.90;;;;;;5115625;28;20222;-75
2022/11/11 03:15:33;;;;;;;21.77;15.03;;;1.70;99.90;;;;;;5115869;28;20229;-75
2022/11/11 03:18:00;;;;;;;21.47;14.13;;;1.60;99.90;;;;;;5115766;28;20256;-75
2022/11/11 03:23:13;;;;;;;21.40;13.30;;;1.60;99.90;;;;;;5115184;28;20264;-75
2022/11/11 03:25:42;;;;;;;21.27;14.17;;;1.60;99.90;;;;;;5114619;28;20199;-75
2022/11/11 03:28:10;;;;;;;19.17;13.40;;;1.50;99.90;;;;;;5114810;28;20223;-75
2022/11/11 03:30:38;;;;;;;19.10;14.00;;;1.50;99.90;;;;;;5115295;28;20191;-75
2022/11/11 03:33:07;;;;;;;23.17;14.00;;;1.50;99.90;;;;;;5114299;28;20269;-75
2022/11/11 03:35:33;;;;;;;22.80;14.87;;;1.50;99.90;;;;;;5115068;28;20200;-75
2022/11/11 03:38:22;;;;;;;23.33;13.57;;;1.70;99.90;;;;;;5114900;28;20207;-74
2022/11/11 03:40:50;;;;;;;19.70;14.47;;;1.70;99.90;;;;;;5114857;28;20203;-74
2022/11/11 03:43:19;;;;;;;23.60;14.40;;;1.60;99.90;;;;;;5114888;28;20257;-74
2022/11/11 03:45:46;;;;;;;22.63;13.97;;;1.50;99.90;;;;;;5114833;28;20199;-75
2022/11/11 03:48:14;;;;;;;19.57;14.10;;;1.60;99.90;;;;;;5114814;28;20223;-75
2022/11/11 03:50:41;;;;;;;22.40;13.67;;;1.60;99.90;;;;;;5114463;28;20240;-75
2022/11/11 03:53:08;;;;;;;26.40;16.07;;;1.50;99.90;;;;;;5114617;28;20646;-75
2022/11/11 03:55:35;;;;;;;22.63;15.10;;;1.50;99.90;;;;;;5114828;28;20204;-74
2022/11/11 03:58:02;;;;;;;20.67;13.17;;;1.50;99.90;;;;;;5121726;28;20213;-75
2022/11/11 04:00:29;;;;;;;20.67;12.73;;;1.50;99.90;;;;;;5115507;28;20218;-75
2022/11/11 04:11:22;;;;;;;23.23;15.20;;;1.50;99.90;;;;;;5114598;28;20261;-75
2022/11/11 04:16:33;;;;;;;21.80;14.53;;;1.50;99.90;;;;;;5114202;28;20252;-75
2022/11/11 04:21:45;;;;;;;22.87;15.20;;;1.50;99.90;;;;;;5114194;28;20198;-75
2022/11/11 04:27:02;;;;;;;20.40;14.53;;;1.50;99.90;;;;;;5114030;28;20268;-75
2022/11/11 04:29:28;;;;;;;20.80;14.30;;;1.60;99.90;;;;;;5113878;28;20268;-75
2022/11/11 04:34:45;;;;;;;20.73;13.73;;;1.50;99.90;;;;;;5114253;28;20199;-75
2022/11/11 04:37:14;;;;;;;19.57;14.57;;;1.50;99.90;;;;;;5114963;28;20252;-75
2022/11/11 04:42:25;;;;;;;22.87;16.27;;;1.60;99.90;;;;;;5114855;28;20653;-74
2022/11/11 04:47:37;;;;;;;23.03;14.70;;;1.50;99.90;;;;;;5118665;28;20218;-76
2022/11/11 04:50:05;;;;;;;19.43;14.57;;;1.40;99.90;;;;;;5118391;28;20324;-75
2022/11/11 04:52:33;;;;;;;22.77;14.60;;;1.40;99.90;;;;;;5123667;28;20192;-75
2022/11/11 04:57:45;;;;;;;20.10;14.70;;;1.30;99.90;;;;;;5119423;28;20235;-75
2022/11/11 05:00:15;;;;;;;23.77;15.00;;;1.30;99.90;;;;;;5118665;28;20199;-74
2022/11/11 05:05:26;;;;;;;24.53;15.60;;;1.50;99.90;;;;;;5117736;28;20241;-75
2022/11/11 05:10:53;;;;;;;20.17;14.57;;;1.60;99.90;;;;;;5034968;28;20201;-75
2022/11/11 05:21:34;;;;;;;23.03;16.47;;;1.60;99.90;;;;;;5118544;28;20195;-74
2022/11/11 05:26:46;;;;;;;22.97;14.80;;;1.40;99.90;;;;;;5116854;28;20238;-75
2022/11/11 05:29:12;;;;;;;22.90;13.77;;;1.40;99.90;;;;;;5117371;28;20273;-74
2022/11/11 05:31:39;;;;;;;20.73;14.23;;;1.40;99.90;;;;;;5117239;28;20666;-74
2022/11/11 05:34:06;;;;;;;20.67;14.13;;;1.40;99.90;;;;;;5117205;28;20203;-74
2022/11/11 05:36:32;;;;;;;22.33;15.33;;;1.50;99.90;;;;;;5117122;28;20198;-75
2022/11/11 05:38:59;;;;;;;24.10;14.80;;;1.50;99.90;;;;;;5117208;28;20208;-75
2022/11/11 05:41:27;;;;;;;23.17;15.60;;;1.40;99.90;;;;;;5117369;28;20195;-75
2022/11/11 05:43:53;;;;;;;24.03;14.73;;;1.50;99.90;;;;;;5117099;28;20259;-75
2022/11/11 05:46:20;;;;;;;23.37;15.00;;;1.40;99.90;;;;;;5121975;28;20256;-75
2022/11/11 05:51:31;;;;;;;26.30;15.43;;;1.30;99.90;;;;;;5118052;28;20241;-74
2022/11/11 05:53:58;;;;;;;25.87;15.80;;;1.30;99.90;;;;;;5117925;28;20249;-76
2022/11/11 05:56:26;;;;;;;24.90;17.97;;;1.30;99.90;;;;;;5117185;28;20608;-75
2022/11/11 05:58:53;;;;;;;26.03;16.60;;;1.30;99.90;;;;;;5121976;28;20217;-75
2022/11/11 06:01:19;;;;;;;25.53;15.50;;;1.20;99.90;;;;;;5122240;28;20200;-75
2022/11/11 06:03:46;;;;;;;23.10;16.23;;;1.20;99.90;;;;;;5121970;28;20272;-75
2022/11/11 06:06:13;;;;;;;21.50;16.37;;;1.20;99.90;;;;;;5105660;28;20189;-75
2022/11/11 06:08:40;;;;;;;22.43;14.97;;;1.10;99.90;;;;;;5082383;28;20229;-75
2022/11/11 06:11:07;;;;;;;22.43;15.27;;;1.20;99.90;;;;;;5083198;28;20197;-75
2022/11/11 06:13:35;;;;;;;17.07;12.73;;;1.20;99.90;;;;;;5082551;28;20201;-76
2022/11/11 06:16:02;;;;;;;19.90;13.40;;;1.10;99.90;;;;;;5082172;28;20200;-76
2022/11/11 06:18:29;;;;;;;25.73;17.23;;;1.20;99.90;;;;;;5079968;28;20262;-76
2022/11/11 06:20:57;;;;;;;38.57;24.73;;;1.20;99.90;;;;;;5082306;28;20200;-76
2022/11/11 06:23:25;;;;;;;25.70;16.97;;;1.10;99.90;;;;;;5082810;28;20197;-75
2022/11/11 06:28:38;;;;;;;55.67;47.33;;;1.10;99.90;;;;;;5073898;28;20304;-76
2022/11/11 06:31:06;;;;;;;28.10;20.63;;;1.10;99.90;;;;;;5081106;28;20205;-75
2022/11/11 06:33:33;;;;;;;23.20;14.30;;;1.20;99.90;;;;;;5080705;28;20292;-76
2022/11/11 06:36:00;;;;;;;21.60;15.23;;;1.40;99.90;;;;;;5080167;28;20201;-76
2022/11/11 06:38:27;;;;;;;25.97;14.33;;;1.50;99.90;;;;;;5080684;28;20201;-76
2022/11/11 06:40:53;;;;;;;23.87;14.63;;;1.50;99.90;;;;;;5080440;28;20648;-76
2022/11/11 06:43:20;;;;;;;25.27;14.80;;;1.50;99.90;;;;;;5077792;28;20242;-76
2022/11/11 06:45:50;;;;;;;20.00;14.40;;;1.60;99.90;;;;;;5077777;28;20196;-75
2022/11/11 06:48:17;;;;;;;22.37;15.27;;;1.70;99.90;;;;;;5078465;28;20295;-75
2022/11/11 06:50:44;;;;;;;21.90;14.70;;;1.80;99.90;;;;;;5077642;28;20243;-75
2022/11/11 06:53:12;;;;;;;22.23;14.50;;;1.80;99.90;;;;;;5077663;28;20201;-75
2022/11/11 06:55:39;;;;;;;21.60;15.40;;;1.80;99.90;;;;;;5076868;28;20225;-76
2022/11/11 06:58:08;;;;;;;28.80;17.10;;;2.00;99.90;;;;;;5075949;28;20200;-75
2022/11/11 07:00:35;;;;;;;27.30;19.47;;;2.00;99.90;;;;;;5075685;28;20299;-76
2022/11/11 07:03:04;;;;;;;38.57;19.90;;;2.10;99.90;;;;;;5075700;28;20243;-75
2022/11/11 07:05:31;;;;;;;27.17;19.67;;;2.20;99.90;;;;;;5075484;28;20286;-75
2022/11/11 07:08:01;;;;;;;26.83;18.20;;;2.20;99.90;;;;;;5074454;28;20193;-74
2022/11/11 07:10:28;;;;;;;28.43;19.40;;;2.30;99.90;;;;;;5074799;28;20197;-73
2022/11/11 07:12:55;;;;;;;29.27;19.73;;;2.40;99.90;;;;;;5073990;28;20652;-75
2022/11/11 07:15:22;;;;;;;26.97;19.37;;;2.50;99.90;;;;;;5074443;28;20227;-74
2022/11/11 07:17:48;;;;;;;26.33;19.60;;;2.50;99.90;;;;;;5074421;28;20223;-74
2022/11/11 07:20:17;;;;;;;32.27;22.00;;;2.60;99.90;;;;;;5074361;28;20205;-74
2022/11/11 07:22:44;;;;;;;30.17;20.93;;;2.70;99.90;;;;;;5074461;28;20588;-74
2022/11/11 07:25:11;;;;;;;34.10;21.50;;;2.70;99.90;;;;;;5074107;28;20212;-75
2022/11/11 07:27:38;;;;;;;32.33;20.50;;;2.80;99.90;;;;;;5074710;28;20250;-75
2022/11/11 07:30:06;;;;;;;32.70;23.13;;;2.90;99.90;;;;;;5074204;28;20225;-74
2022/11/11 07:32:33;;;;;;;30.73;23.03;;;2.90;99.90;;;;;;5074848;28;20205;-75
2022/11/11 07:35:00;;;;;;;35.40;22.93;;;3.10;99.90;;;;;;5076183;28;20716;-73
2022/11/11 07:37:28;;;;;;;29.80;22.03;;;3.10;99.90;;;;;;5075666;28;20242;-76
2022/11/11 07:39:54;;;;;;;33.13;23.40;;;3.20;99.90;;;;;;5074795;28;20194;-77
2022/11/11 07:42:21;;;;;;;34.13;24.27;;;3.30;99.90;;;;;;5074401;28;20278;-73
2022/11/11 07:44:48;;;;;;;38.20;24.17;;;3.40;99.90;;;;;;5073547;28;20230;-73
2022/11/11 07:47:14;;;;;;;36.90;24.37;;;3.50;99.90;;;;;;5072892;28;20197;-72
2022/11/11 07:49:41;;;;;;;35.20;22.97;;;3.60;99.90;;;;;;5072930;28;20277;-73
2022/11/11 07:52:07;;;;;;;39.83;24.33;;;3.70;99.90;;;;;;5072609;28;20243;-74
2022/11/11 07:54:35;;;;;;;35.60;24.07;;;3.80;99.90;;;;;;5091279;28;20202;-73
2022/11/11 07:57:02;;;;;;;37.40;24.13;;;4.00;99.90;;;;;;5087482;28;20651;-73
2022/11/11 07:59:29;;;;;;;37.67;26.30;;;4.20;99.90;;;;;;5089698;28;20195;-74
2022/11/11 08:01:56;;;;;;;34.20;26.47;;;4.40;99.90;;;;;;5092587;28;20249;-74
2022/11/11 08:04:22;;;;;;;38.23;25.87;;;4.70;99.90;;;;;;5092433;28;20277;-74
2022/11/11 08:06:49;;;;;;;32.60;25.77;;;4.90;99.90;;;;;;5092763;28;20270;-73
2022/11/11 08:09:15;;;;;;;35.33;25.07;;;5.00;99.90;;;;;;5092509;28;20333;-73
2022/11/11 08:14:28;;;;;;;37.47;25.37;;;5.30;99.90;;;;;;5090159;28;20202;-75
2022/11/11 08:16:54;;;;;;;41.07;25.30;;;5.50;99.90;;;;;;5084730;28;20197;-74
2022/11/11 08:19:21;;;;;;;33.47;23.40;;;5.60;99.90;;;;;;5094830;28;20560;-73
2022/11/11 08:21:48;;;;;;;35.73;24.33;;;5.80;99.90;;;;;;5096761;28;20196;-73
2022/11/11 08:24:15;;;;;;;34.37;25.30;;;6.10;99.90;;;;;;5096992;28;20253;-73
2022/11/11 08:26:42;;;;;;;33.30;24.73;;;6.30;99.90;;;;;;5096827;28;20197;-73
2022/11/11 08:29:10;;;;;;;37.80;25.50;;;6.70;99.90;;;;;;5096583;28;20235;-73
2022/11/11 08:31:38;;;;;;;34.10;25.53;;;6.90;99.90;;;;;;5096648;28;20246;-74
2022/11/11 08:34:05;;;;;;;32.50;24.00;;;7.00;99.90;;;;;;5096806;28;20220;-73
2022/11/11 08:36:31;;;;;;;29.53;24.30;;;7.30;99.90;;;;;;5096896;28;20275;-73
2022/11/11 08:38:58;;;;;;;32.10;21.40;;;7.50;99.90;;;;;;5096671;28;20261;-74
2022/11/11 08:41:25;;;;;;;26.83;20.23;;;7.50;99.90;;;;;;5096551;28;20201;-73
2022/11/11 08:43:53;;;;;;;24.03;19.47;;;7.70;99.90;;;;;;5096004;28;20196;-73
2022/11/11 08:46:21;;;;;;;22.30;18.50;;;7.80;99.90;;;;;;5096252;28;20200;-74
2022/11/11 08:48:48;;;;;;;22.67;18.47;;;8.10;99.90;;;;;;5095991;28;20220;-74
2022/11/11 08:51:15;;;;;;;24.33;17.37;;;8.20;99.90;;;;;;5096358;28;20226;-73
2022/11/11 08:53:42;;;;;;;18.73;15.00;;;8.60;99.90;;;;;;5096043;28;20196;-73
2022/11/11 08:56:11;;;;;;;19.20;15.13;;;8.70;99.90;;;;;;5096169;28;20225;-74
2022/11/11 08:58:37;;;;;;;18.83;14.20;;;9.00;99.90;;;;;;5096021;28;20730;-74
2022/11/11 09:01:04;;;;;;;16.73;13.40;;;9.30;99.90;;;;;;5095904;28;20200;-74
2022/11/11 09:03:32;;;;;;;16.00;11.87;;;9.50;99.90;;;;;;5096112;28;20196;-74
2022/11/11 09:05:59;;;;;;;15.73;11.60;;;9.80;99.90;;;;;;5096360;28;20228;-74
2022/11/11 09:08:26;;;;;;;15.47;11.73;;;10.10;99.90;;;;;;5095569;28;20651;-74
2022/11/11 09:10:52;;;;;;;14.47;11.60;;;10.40;99.90;;;;;;5095729;28;20257;-74
2022/11/11 09:13:19;;;;;;;14.05;11.27;;;10.70;99.90;;;;;;5095891;28;20222;-73
2022/11/11 09:15:46;;;;;;;15.35;12.20;;;11.00;99.90;;;;;;5095345;28;20273;-88
2022/11/11 09:18:12;;;;;;;16.85;12.35;;;11.50;99.90;;;;;;5095484;28;20200;-74
2022/11/11 09:20:40;;;;;;;12.60;11.25;;;11.80;99.90;;;;;;5095646;28;20196;-73
2022/11/11 09:23:08;;;;;;;12.20;10.90;;;11.80;99.90;;;;;;5095284;28;20200;-75
2022/11/11 09:25:34;;;;;;;13.63;11.13;;;12.00;99.90;;;;;;5095624;28;20197;-75
2022/11/11 09:28:02;;;;;;;14.15;11.18;;;12.30;99.90;;;;;;5095430;28;20675;-74
2022/11/11 09:30:29;;;;;;;11.55;10.32;;;12.40;99.90;;;;;;5094625;28;20315;-75
2022/11/11 09:33:01;;;;;;;12.18;10.85;;;12.60;99.90;;;;;;5095427;28;20249;-75
2022/11/11 09:35:28;;;;;;;13.40;11.32;;;12.80;99.90;;;;;;5095419;28;20200;-75
2022/11/11 09:37:57;;;;;;;11.80;10.60;;;13.10;99.90;;;;;;5095360;28;20196;-75
2022/11/11 09:40:27;;;;;;;17.33;10.05;;;13.40;99.90;;;;;;5095375;28;20283;-75
2022/11/11 09:43:02;;;;;;;13.95;10.35;;;13.70;99.90;;;;;;5095189;28;20193;-75
2022/11/11 09:45:37;;;;;;;13.10;10.68;;;14.00;99.90;;;;;;5095565;28;20225;-75
2022/11/11 09:48:26;;;;;;;11.52;9.88;;;14.10;99.90;;;;;;5095374;28;20199;-75
2022/11/11 09:50:57;;;;;;;11.68;10.35;;;14.40;99.90;;;;;;5095195;28;20269;-75
2022/11/11 09:53:32;;;;;;;10.23;9.13;;;15.10;99.90;;;;;;5094861;28;20200;-76
2022/11/11 09:56:06;;;;;;;11.73;9.73;;;15.50;99.90;;;;;;5095113;28;20253;-75
2022/11/11 09:58:38;;;;;;;11.38;9.02;;;15.90;99.90;;;;;;5095109;28;20242;-76
2022/11/11 10:01:10;;;;;;;13.40;8.98;;;16.30;99.90;;;;;;5094903;28;20204;-76
2022/11/11 10:03:41;;;;;;;10.35;9.23;;;16.80;99.90;;;;;;5094807;28;20555;-76
2022/11/11 10:06:10;;;;;;;7.78;7.00;;;17.20;99.90;;;;;;5094862;28;20196;-76
2022/11/11 10:08:44;;;;;;;8.55;7.65;;;18.00;99.90;;;;;;5094995;28;20200;-76
2022/11/11 10:11:16;;;;;;;8.63;7.30;;;19.00;99.90;;;;;;5094809;28;20224;-75
2022/11/11 10:13:43;;;;;;;8.55;7.68;;;20.10;99.90;;;;;;5094388;28;20602;-74
2022/11/11 10:16:18;;;;;;;9.38;7.15;;;20.40;99.90;;;;;;5094578;28;20222;-75
2022/11/11 10:18:59;;;;;;;9.60;7.13;;;21.00;99.90;;;;;;5094553;28;20199;-75
2022/11/11 10:21:33;;;;;;;9.77;7.65;;;22.20;99.90;;;;;;5094452;28;20196;-74
2022/11/11 10:24:04;;;;;;;7.22;6.22;;;23.00;99.90;;;;;;5094687;28;20200;-75
2022/11/11 10:26:37;;;;;;;8.20;6.55;;;22.70;99.90;;;;;;5094483;28;20257;-75
2022/11/11 10:29:13;;;;;;;8.88;6.18;;;22.60;99.90;;;;;;5094267;28;20598;-75
2022/11/11 10:31:41;;;;;;;6.72;6.07;;;23.30;99.80;;;;;;5094538;28;20204;-74
2022/11/11 10:34:11;;;;;;;7.70;6.15;;;23.70;97.60;;;;;;5094324;28;20238;-74
2022/11/11 10:36:44;;;;;;;8.15;6.13;;;23.70;96.70;;;;;;5094105;28;20192;-75
2022/11/11 10:39:16;;;;;;;7.03;5.85;;;23.30;96.50;;;;;;5094073;28;20204;-75
2022/11/11 10:41:46;;;;;;;6.15;5.57;;;23.50;96.00;;;;;;5093325;28;20207;-74
2022/11/11 10:44:21;;;;;;;6.10;5.38;;;22.10;95.50;;;;;;5094100;28;20200;-76
2022/11/11 10:46:58;;;;;;;6.75;5.13;;;21.80;96.10;;;;;;5093948;28;20196;-75
2022/11/11 10:49:29;;;;;;;6.18;4.85;;;22.80;96.10;;;;;;5094008;28;20353;-76
2022/11/11 10:52:04;;;;;;;6.03;5.10;;;23.20;95.00;;;;;;5094020;28;20625;-75
2022/11/11 10:54:38;;;;;;;4.72;4.30;;;23.70;94.50;;;;;;5094066;28;20260;-76
2022/11/11 10:57:12;;;;;;;6.22;4.53;;;24.20;93.70;;;;;;5094918;28;20199;-74
2022/11/11 10:59:43;;;;;;;5.35;4.22;;;24.60;93.00;;;;;;5089201;28;20250;-75
2022/11/11 11:02:18;;;;;;;4.50;4.10;;;24.70;92.50;;;;;;5089261;28;20617;-77
2022/11/11 11:04:48;;;;;;;4.55;4.13;;;24.70;92.50;;;;;;5093562;28;20234;-77
2022/11/11 11:07:20;;;;;;;5.35;4.85;;;24.90;92.30;;;;;;5093480;28;20200;-77
2022/11/11 11:09:54;;;;;;;4.63;4.22;;;25.20;90.30;;;;;;5102693;28;20215;-76
2022/11/11 11:12:26;;;;;;;6.53;3.92;;;26.10;88.30;;;;;;5113552;28;20199;-78
2022/11/11 11:14:58;;;;;;;4.85;4.45;;;27.30;86.20;;;;;;5113994;28;20196;-76
2022/11/11 11:17:30;;;;;;;5.00;4.13;;;27.30;80.60;;;;;;5113831;28;20582;-76
2022/11/11 11:20:09;;;;;;;4.45;4.05;;;26.60;79.90;;;;;;5113825;28;20196;-76
2022/11/11 11:22:48;;;;;;;9.73;4.78;;;27.00;78.70;;;;;;5113843;28;20252;-76
2022/11/11 11:25:18;;;;;;;5.30;4.78;;;26.50;78.10;;;;;;5113908;28;20219;-76
2022/11/11 11:27:45;;;;;;;4.78;4.28;;;27.00;77.60;;;;;;5113785;28;20231;-76
2022/11/11 11:30:14;;;;;;;6.68;4.20;;;25.80;77.20;;;;;;5113643;28;20292;-77
2022/11/11 11:32:43;;;;;;;5.25;4.35;;;25.70;77.90;;;;;;5113785;28;20199;-76
2022/11/11 11:35:29;;;;;;;5.00;4.50;;;25.50;79.10;;;;;;5113793;28;20223;-77
2022/11/11 11:37:56;;;;;;;5.60;5.03;;;23.80;78.10;;;;;;5113915;28;20280;-78
2022/11/11 11:40:24;;;;;;;5.00;4.60;;;23.00;80.70;;;;;;5113863;28;20203;-77
2022/11/11 11:42:51;;;;;;;7.65;4.72;;;22.50;81.40;;;;;;5113887;28;20199;-77
2022/11/11 11:45:24;;;;;;;4.07;3.78;;;22.40;82.90;;;;;;5113587;28;20257;-78
2022/11/11 11:48:05;;;;;;;6.03;3.95;;;24.20;81.40;;;;;;5113580;28;20204;-78
2022/11/11 11:50:42;;;;;;;4.60;4.07;;;25.20;76.80;;;;;;5113857;28;20755;-76
2022/11/11 11:53:32;;;;;;;4.63;3.88;;;26.70;75.40;;;;;;5113058;28;20230;-77
2022/11/11 11:56:10;;;;;;;5.63;4.07;;;26.90;72.00;;;;;;5113297;28;20256;-78
2022/11/11 11:58:42;;;;;;;4.30;3.90;;;27.40;71.90;;;;;;5113358;28;20646;-76
2022/11/11 12:01:13;;;;;;;4.88;4.22;;;27.90;68.60;;;;;;5113442;28;20650;-77
2022/11/11 12:04:02;;;;;;;4.32;3.92;;;27.70;67.60;;;;;;5114106;28;20191;-76
2022/11/11 12:06:40;;;;;;;4.93;4.45;;;27.80;67.60;;;;;;5114151;28;20195;-78
2022/11/11 12:09:21;;;;;;;4.70;4.30;;;26.90;67.00;;;;;;5116648;28;20209;-77
2022/11/11 12:11:58;;;;;;;4.57;4.18;;;27.30;66.90;;;;;;5118004;28;20195;-77
2022/11/11 12:14:39;;;;;;;6.78;4.63;;;27.80;65.30;;;;;;5116207;28;20255;-77
2022/11/11 12:17:15;;;;;;;4.50;4.10;;;27.70;63.40;;;;;;5113312;28;20578;-76
2022/11/11 12:19:51;;;;;;;3.40;3.10;;;29.00;63.70;;;;;;5113350;28;20624;-78
2022/11/11 12:22:29;;;;;;;5.45;3.70;;;28.70;60.80;;;;;;5113404;28;20203;-76
2022/11/11 12:25:08;;;;;;;3.90;3.15;;;27.30;62.40;;;;;;5113456;28;20230;-76
2022/11/11 12:27:45;;;;;;;4.20;3.40;;;27.20;61.70;;;;;;5113477;28;20195;-76
2022/11/11 12:30:15;;;;;;;4.05;3.65;;;27.40;60.10;;;;;;5113181;28;20214;-76
2022/11/11 12:33:34;;;;;;;4.47;3.55;;;28.50;59.20;;;;;;5113353;28;20195;-77
2022/11/11 12:36:10;;;;;;;4.70;3.42;;;27.90;59.30;;;;;;5114679;28;20215;-75
2022/11/11 12:38:56;;;;;;;4.18;3.35;;;28.90;58.10;;;;;;5112956;28;20272;-74
2022/11/11 12:41:42;;;;;;;2.70;2.20;;;28.60;56.80;;;;;;5112717;28;20240;-75
2022/11/11 12:44:12;;;;;;;5.10;2.15;;;28.10;54.60;;;;;;5112579;28;20252;-74
2022/11/11 12:46:51;;;;;;;3.35;2.60;;;26.80;55.00;;;;;;5113006;28;20195;-74
2022/11/11 12:49:43;;;;;;;5.45;1.98;;;27.30;55.40;;;;;;5112722;28;20199;-74
2022/11/11 12:52:19;;;;;;;2.45;1.67;;;25.30;56.40;;;;;;5112457;28;20643;-73
2022/11/11 12:54:59;;;;;;;2.17;1.98;;;25.10;56.20;;;;;;5112351;28;20593;-75
2022/11/11 12:57:35;;;;;;;3.40;2.00;;;24.00;58.20;;;;;;5112715;28;20196;-74
2022/11/11 13:00:14;;;;;;;2.70;2.20;;;23.00;58.60;;;;;;5112776;28;20249;-75
2022/11/11 13:03:05;;;;;;;2.92;2.05;;;22.00;61.60;;;;;;5112691;28;20196;-74
2022/11/11 13:05:34;;;;;;;4.75;3.30;;;21.90;64.30;;;;;;5113280;28;20234;-75
2022/11/11 13:08:27;;;;;;;4.60;3.80;;;22.10;64.40;;;;;;5116388;28;20714;-76
2022/11/11 13:11:03;;;;;;;4.53;3.78;;;22.30;67.70;;;;;;5116172;28;20216;-75
2022/11/11 13:13:42;;;;;;;4.45;3.90;;;23.00;66.80;;;;;;5116342;28;20191;-77
2022/11/11 13:16:10;;;;;;;4.38;3.97;;;22.70;67.00;;;;;;5116288;28;20206;-75
2022/11/11 13:18:45;;;;;;;4.25;3.63;;;22.00;69.10;;;;;;5116291;28;20249;-75
2022/11/11 13:21:15;;;;;;;3.67;3.38;;;21.20;70.60;;;;;;5116515;28;20202;-81
2022/11/11 13:23:42;;;;;;;3.65;3.33;;;21.00;72.10;;;;;;5115224;28;20555;-78
2022/11/11 13:26:23;;;;;;;3.88;3.47;;;21.00;71.90;;;;;;5116250;28;20196;-77
2022/11/11 13:28:57;;;;;;;4.57;3.80;;;21.70;71.10;;;;;;5116119;28;20198;-76
2022/11/11 13:31:33;;;;;;;5.45;4.00;;;21.70;71.10;;;;;;5115784;28;20283;-76
2022/11/11 13:34:05;;;;;;;4.53;3.45;;;21.00;71.70;;;;;;5115925;28;20259;-77
2022/11/11 13:36:40;;;;;;;5.43;3.65;;;21.40;72.10;;;;;;5115992;28;20222;-76
2022/11/11 13:39:22;;;;;;;3.72;3.35;;;21.10;71.30;;;;;;5115762;28;20199;-76
2022/11/11 13:41:52;;;;;;;4.25;3.58;;;21.20;73.40;;;;;;5115672;28;20199;-75
2022/11/11 13:44:24;;;;;;;7.13;4.20;;;20.70;72.90;;;;;;5115570;28;20537;-75
2022/11/11 13:46:52;;;;;;;3.60;3.30;;;20.70;74.10;;;;;;5115498;28;20196;-74
2022/11/11 13:49:25;;;;;;;5.03;3.90;;;21.00;73.10;;;;;;5115621;28;20204;-75
2022/11/11 13:51:58;;;;;;;5.75;3.95;;;21.30;73.80;;;;;;5115183;27;20609;-77
2022/11/11 13:54:28;;;;;;;4.40;3.80;;;21.90;73.40;;;;;;5115445;28;20195;-75
2022/11/11 13:57:03;;;;;;;4.75;3.75;;;22.00;72.30;;;;;;5115159;28;20654;-75
2022/11/11 13:59:35;;;;;;;4.25;3.85;;;21.40;72.90;;;;;;5115238;28;20642;-78
2022/11/11 14:02:31;;;;;;;4.50;4.10;;;20.70;75.30;;;;;;5089996;28;20613;-75
2022/11/11 14:05:28;;;;;;;5.10;3.95;;;19.60;76.00;;;;;;5059095;28;20239;-76
2022/11/11 14:07:56;;;;;;;4.40;3.97;;;18.80;77.50;;;;;;5032030;28;20244;-76
2022/11/11 14:10:53;;;;;;;5.70;4.35;;;18.20;79.40;;;;;;5080377;28;20643;-75
2022/11/11 14:13:37;;;;;;;4.32;3.92;;;17.50;83.30;;;;;;5093788;28;20192;-75
2022/11/11 14:16:04;;;;;;;4.57;4.07;;;17.00;86.40;;;;;;5094537;28;20200;-74
2022/11/11 14:18:45;;;;;;;4.88;4.38;;;16.50;89.90;;;;;;5094535;28;20249;-74
2022/11/11 14:21:31;;;;;;;6.95;5.10;;;16.00;91.70;;;;;;5094551;28;20310;-74